Nearby METAR Reports

 

KORH - Worcester, Massachusetts, USA
Distance from station: NW 4mi, 7km
Updated: Tue, 30-May-2017 5:04am EDT
Mist, Overcast
Mist, Overcast
 Wind from calm
Wind: Calm
Temperature: 46°F , 8°C
Dew Point: 45°F , 7°C
Humidity: 93%
Barometer: 30.15 inHg , 1021 hPa
Summary: Mist
Clouds: Overcast
Visibility: 1/4 mile , 2 km
Cloud details: Overcast 200 ft
2017/05/30 09:04 KORH 300904Z AUTO 00000KT 1/4SM R11/5500VP6000FT BR VV002 08/07 A3015 RMK AO2 T00780072
KBOS - Boston, Massachusetts, USA
Distance from station: ENE 42mi, 68km
Updated: Tue, 30-May-2017 4:54am EDT
Overcast
Overcast
 Wind from calm
Wind: Calm
Temperature: 48°F , 9°C
Dew Point: 46°F , 8°C
Humidity: 94%
Barometer: 30.17 inHg , 1021.7 hPa
Clouds: Overcast
Visibility: 10 miles , 16 km
Cloud details: Overcast 700 ft
2017/05/30 08:54 KBOS 300854Z 00000KT 10SM OVC007 09/08 A3017 RMK AO2 SLP216 T00940083 53007
 
KCQX - Chatham, Massachusetts, USA
Distance from station: SE 102mi, 164km
Updated: Tue, 30-May-2017 5:05am EDT
Mist, Overcast
Mist, Overcast
 Wind from calm
Wind: Calm
Temperature: 50°F , 10°C
Dew Point: 50°F , 10°C
Humidity: 100%
Barometer: 30.16 inHg , 1021.3 hPa
Summary: Mist
Clouds: Overcast
Visibility: 3 miles , 5 km
Cloud details: Overcast 200 ft
2017/05/30 09:05 KCQX 300905Z AUTO 00000KT 3SM BR OVC002 10/10 A3016 RMK AO2 T01000100
KMVY - Marthas Vineyard, Massachusetts, USA
Distance from station: SE 84mi, 135km
Updated: Tue, 30-May-2017 4:53am EDT
Overcast
Overcast
 Wind from calm
Wind: Calm
Temperature: 52°F , 11°C
Dew Point: 50°F , 10°C
Humidity: 94%
Barometer: 30.15 inHg , 1021 hPa
Clouds: Overcast
Visibility: 10 miles , 16 km
Cloud details: Overcast 400 ft
2017/05/30 08:53 KMVY 300853Z AUTO 00000KT 10SM OVC004 11/10 A3015 RMK AO2 SLP211 T01110100 50006 TSNO
 
KPVC - Provincetown, Massachusetts, USA
Distance from station: NNW 85mi, 136km
Updated: Tue, 30-May-2017 4:56am EDT
Overcast
Overcast
 Wind from NNE
Wind: NNE 5 mph , 7 km/h
Temperature: 48°F , 9°C
Wind Chill: 46°F , 8°C
Dew Point: 48°F , 9°C
Humidity: 100%
Barometer: 30.17 inHg , 1021.7 hPa
Clouds: Overcast
Visibility: 10 miles , 16 km
Cloud details: Overcast 400 ft
2017/05/30 08:56 KPVC 300856Z AUTO 02004KT 10SM OVC004 09/09 A3017 RMK AO2 SLP216 T00940094 53011
KAQW - Savoy, Massachusetts, USA
Distance from station: NNW 66mi, 106km
Updated: Tue, 30-May-2017 4:52am EDT
Overcast
Overcast
 Wind from varies
Wind: varies 7 mph , 11 km/h
Temperature: 52°F , 11°C
Dew Point: 48°F , 9°C
Humidity: 88%
Barometer: 30.10 inHg , 1019.3 hPa
Clouds: Overcast
Visibility: 10 miles , 16 km
Cloud details: Overcast 2100 ft
2017/05/30 08:52 KAQW 300852Z AUTO VRB06KT 10SM OVC021 11/09 A3010 RMK AO2 SLP195 T01110094 51003
 
KIZG - Fryeburg, Maine, USA
Distance from station: NNE 133mi, 214km
Updated: Tue, 30-May-2017 4:54am EDT
Overcast
Overcast
 Wind from calm
Wind: Calm
Temperature: 46°F , 8°C
Dew Point: 46°F , 8°C
Humidity: 100%
Barometer: 30.16 inHg , 1021.3 hPa
Clouds: Overcast
Visibility: 10 miles , 16 km
Cloud details: Overcast 3200 ft
2017/05/30 08:54 KIZG 300854Z AUTO 00000KT 10SM OVC032 08/08 A3016 RMK AO2 SLP218 T00780078 53003
KMWN - Mt Washington, New Hampshire, USA
Distance from station: NNE 146mi, 234km
Updated: Tue, 30-May-2017 4:51am EDT

 Wind from WSW
Wind: WSW 17 mph , 28 km/h
Visibility: 100 miles , 160 km
2017/05/30 08:51 KMWN 300851Z 25015KT 100SM OVC/// FEW080 FEW140 SCT200 05/04 RMK TPS LWR OVC048
 
KBML - Berlin, New Hampshire, USA
Distance from station: NNE 160mi, 257km
Updated: Tue, 30-May-2017 4:52am EDT
Overcast
Overcast
 Wind from calm
Wind: Calm
Temperature: 43°F , 6°C
Dew Point: 39°F , 4°C
Humidity: 87%
Barometer: 30.12 inHg , 1020 hPa
Clouds: Overcast
Visibility: 10 miles , 16 km
Cloud details: Overcast 2700 ft
2017/05/30 08:52 KBML 300852Z AUTO 00000KT 10SM OVC027 06/04 A3012 RMK AO2 SLP208 T00610044 53009